createdAt,value
2018-04-16T00:01:49.175Z,6.33
2018-04-16T00:06:32.497Z,6.03
2018-04-16T00:11:15.830Z,6.50
2018-04-16T00:16:00.004Z,6.33
2018-04-16T00:20:43.298Z,6.50
2018-04-16T00:25:26.643Z,7.00
2018-04-16T00:30:09.963Z,6.50
2018-04-16T00:34:58.859Z,7.30
2018-04-16T00:39:47.773Z,6.70
2018-04-16T00:44:38.370Z,6.50
2018-04-16T00:49:27.303Z,6.77
2018-04-16T00:54:23.969Z,6.90
2018-04-16T00:59:13.737Z,5.80
2018-04-16T01:04:02.731Z,6.10
2018-04-16T01:08:52.348Z,5.20
2018-04-16T01:13:41.357Z,6.07
2018-04-16T01:18:30.176Z,5.57
2018-04-16T01:23:19.049Z,6.30
2018-04-16T01:28:07.933Z,6.40
2018-04-16T01:32:56.923Z,7.90
2018-04-16T01:37:45.830Z,8.87
2018-04-16T01:42:34.877Z,8.20
2018-04-16T01:47:23.851Z,7.97
2018-04-16T01:52:12.714Z,7.47
2018-04-16T01:57:01.669Z,7.60
2018-04-16T02:01:50.600Z,9.43
2018-04-16T02:12:01.777Z,9.80
2018-04-16T02:16:50.774Z,8.23
2018-04-16T02:21:40.587Z,7.10
2018-04-16T02:26:29.558Z,9.40
2018-04-16T02:31:18.483Z,9.73
2018-04-16T02:36:07.603Z,13.40
2018-04-16T02:40:57.539Z,13.60
2018-04-16T02:45:46.518Z,15.57
2018-04-16T02:50:36.346Z,15.87
2018-04-16T03:00:46.383Z,16.47
2018-04-16T03:05:36.194Z,16.43
2018-04-16T03:10:25.075Z,17.23
2018-04-16T03:15:14.114Z,15.93
2018-04-16T03:20:03.777Z,15.43
2018-04-16T03:24:52.809Z,16.73
2018-04-16T03:29:41.698Z,17.33
2018-04-16T03:34:30.771Z,17.00
2018-04-16T03:39:19.788Z,18.30
2018-04-16T03:44:09.062Z,18.33
2018-04-16T03:48:58.805Z,18.57
2018-04-16T03:53:44.705Z,18.50
2018-04-16T03:58:28.062Z,16.47
2018-04-16T04:03:12.219Z,18.70
2018-04-16T04:07:55.793Z,18.27
2018-04-16T04:12:39.114Z,16.93
2018-04-16T04:17:22.526Z,16.90
2018-04-16T04:22:06.006Z,22.90
2018-04-16T04:27:01.159Z,22.57
2018-04-16T04:31:44.555Z,22.67
2018-04-16T04:36:28.486Z,20.33
2018-04-16T04:41:12.051Z,19.50
2018-04-16T04:45:55.513Z,19.70
2018-04-16T04:50:38.932Z,17.23
2018-04-16T04:55:22.350Z,18.53
2018-04-16T05:00:05.759Z,19.33
2018-04-16T05:04:49.885Z,17.87
2018-04-16T05:09:33.354Z,17.67
2018-04-16T05:14:18.880Z,18.20
2018-04-16T05:19:02.384Z,17.33
2018-04-16T05:23:46.538Z,18.03
2018-04-16T05:28:31.442Z,19.87
2018-04-16T05:33:15.556Z,20.63
2018-04-16T05:37:58.947Z,21.47
2018-04-16T05:42:42.359Z,21.10
2018-04-16T05:47:25.765Z,22.70
2018-04-16T05:52:09.151Z,24.57
2018-04-16T05:56:53.287Z,28.63
2018-04-16T06:01:36.755Z,32.83
2018-04-16T06:06:20.151Z,37.20
2018-04-16T06:11:03.612Z,44.23
2018-04-16T06:15:47.698Z,44.57
2018-04-16T06:20:31.108Z,44.73
2018-04-16T06:25:14.565Z,46.70
2018-04-16T06:29:57.926Z,47.87
2018-04-16T06:34:42.131Z,45.43
2018-04-16T06:39:25.586Z,45.00
2018-04-16T06:44:08.909Z,58.55
2018-04-16T06:48:53.024Z,41.17
2018-04-16T06:53:36.334Z,41.40
2018-04-16T06:58:19.691Z,41.37
2018-04-16T07:03:03.097Z,41.93
2018-04-16T07:07:46.431Z,42.40
2018-04-16T07:12:29.766Z,43.33
2018-04-16T07:17:13.931Z,40.07
2018-04-16T07:21:57.341Z,42.10
2018-04-16T07:26:41.573Z,40.73
2018-04-16T07:31:25.006Z,40.40
2018-04-16T07:36:08.341Z,35.53
2018-04-16T07:40:51.684Z,37.53
2018-04-16T07:45:35.145Z,35.73
2018-04-16T07:50:18.508Z,35.77
2018-04-16T07:55:02.608Z,35.53
2018-04-16T07:59:45.908Z,37.30
2018-04-16T08:04:30.023Z,38.17
2018-04-16T08:09:13.347Z,40.63
2018-04-16T08:13:57.457Z,41.37
2018-04-16T08:18:41.595Z,39.27
2018-04-16T08:23:24.915Z,37.97
2018-04-16T08:28:08.242Z,39.33
2018-04-16T08:32:51.590Z,37.83
2018-04-16T08:37:34.933Z,39.80
2018-04-16T08:42:18.363Z,40.07
2018-04-16T08:47:01.706Z,37.23
2018-04-16T08:51:45.014Z,37.33
2018-04-16T08:56:29.125Z,37.57
2018-04-16T09:01:12.456Z,32.40
2018-04-16T09:05:55.840Z,31.80
2018-04-16T09:10:39.199Z,30.90
2018-04-16T09:15:23.301Z,31.27
2018-04-16T09:20:06.616Z,31.73
2018-04-16T09:24:50.014Z,30.73
2018-04-16T09:29:34.089Z,30.60
2018-04-16T09:34:18.338Z,30.33
2018-04-16T09:39:02.546Z,30.40
2018-04-16T09:43:45.858Z,32.87
2018-04-16T09:48:29.216Z,28.80
2018-04-16T09:53:12.593Z,29.43
2018-04-16T09:57:55.972Z,26.77
2018-04-16T10:02:47.981Z,24.70
2018-04-16T10:07:31.296Z,24.77
2018-04-16T10:12:14.652Z,25.97
2018-04-16T10:16:57.997Z,25.43
2018-04-16T10:21:41.352Z,25.03
2018-04-16T10:26:24.772Z,25.63
2018-04-16T10:31:08.132Z,25.23
2018-04-16T10:35:51.477Z,25.20
2018-04-16T10:40:34.847Z,28.27
2018-04-16T10:45:18.947Z,27.10
2018-04-16T10:50:02.269Z,28.63
2018-04-16T10:54:45.675Z,28.47
2018-04-16T10:59:29.082Z,29.27
2018-04-16T11:04:12.435Z,30.37
2018-04-16T11:08:55.724Z,27.20
2018-04-16T11:13:39.085Z,30.53
2018-04-16T11:18:22.443Z,31.00
2018-04-16T11:23:05.886Z,31.73
2018-04-16T11:27:49.872Z,31.10
2018-04-16T11:32:33.629Z,29.93
2018-04-16T11:37:17.783Z,29.83
2018-04-16T11:42:01.211Z,28.93
2018-04-16T11:46:44.628Z,30.23
2018-04-16T11:51:28.057Z,31.23
2018-04-16T11:56:11.426Z,29.27
2018-04-16T12:00:54.826Z,30.63
2018-04-16T12:05:38.977Z,29.10
2018-04-16T12:10:22.473Z,28.70
2018-04-16T12:15:06.033Z,27.23
2018-04-16T12:19:49.395Z,27.80
2018-04-16T12:24:33.525Z,25.73
2018-04-16T12:29:34.285Z,27.77
2018-04-16T12:34:23.502Z,28.17
2018-04-16T12:39:06.963Z,27.57
2018-04-16T12:43:50.299Z,28.43
2018-04-16T12:48:33.662Z,30.67
2018-04-16T12:53:22.961Z,30.10
2018-04-16T12:58:12.980Z,28.77
2018-04-16T13:03:02.199Z,30.67
2018-04-16T13:07:51.503Z,29.40
2018-04-16T13:12:34.853Z,29.37
2018-04-16T13:17:18.234Z,29.03
2018-04-16T13:22:01.585Z,29.53
2018-04-16T13:26:50.690Z,30.20
2018-04-16T13:31:34.061Z,31.30
2018-04-16T13:36:17.402Z,31.63
2018-04-16T13:41:11.519Z,32.73
2018-04-16T13:46:00.710Z,28.70
2018-04-16T13:50:44.070Z,26.37
2018-04-16T13:55:28.281Z,26.47
2018-04-16T14:00:18.609Z,26.60
2018-04-16T14:05:02.773Z,28.73
2018-04-16T14:09:46.147Z,27.20
2018-04-16T14:14:41.003Z,27.63
2018-04-16T14:19:30.318Z,28.13
2018-04-16T14:24:13.688Z,27.50
2018-04-16T14:29:02.874Z,25.43
2018-04-16T14:33:46.240Z,23.60
2018-04-16T14:38:41.225Z,21.87
2018-04-16T14:43:30.215Z,21.23
2018-04-16T14:48:13.834Z,22.13
2018-04-16T14:53:02.931Z,18.13
2018-04-16T14:57:52.911Z,18.53
2018-04-16T15:02:42.026Z,16.90
2018-04-16T15:07:31.241Z,18.77
2018-04-16T15:12:14.595Z,19.03
2018-04-16T15:16:57.909Z,20.47
2018-04-16T15:21:41.268Z,19.27
2018-04-16T15:26:24.625Z,20.10
2018-04-16T15:31:08.798Z,20.70
2018-04-16T15:35:52.177Z,19.33
2018-04-16T15:45:54.957Z,22.87
2018-04-16T15:50:39.235Z,23.17
2018-04-16T15:55:22.897Z,24.00
2018-04-16T16:00:06.999Z,23.90
2018-04-16T16:04:50.359Z,23.37
2018-04-16T16:09:33.736Z,24.43
2018-04-16T16:14:23.898Z,26.87
2018-04-16T16:19:10.407Z,29.10
2018-04-16T16:23:55.791Z,27.03
2018-04-16T16:28:39.299Z,28.03
2018-04-16T16:33:23.980Z,25.63
2018-04-16T16:38:07.417Z,23.13
2018-04-16T16:42:54.220Z,25.03
2018-04-16T16:47:38.499Z,25.97
2018-04-16T16:52:22.697Z,24.63
2018-04-16T16:57:06.220Z,25.03
2018-04-16T17:01:49.735Z,26.57
2018-04-16T17:06:33.960Z,28.23
2018-04-16T17:11:17.437Z,28.73
2018-04-16T17:16:01.567Z,30.70
2018-04-16T17:20:44.954Z,31.10
2018-04-16T17:25:28.305Z,29.53
2018-04-16T17:30:11.772Z,30.67
2018-04-16T17:34:55.946Z,34.40
2018-04-16T17:39:39.350Z,31.17
2018-04-16T17:44:22.725Z,30.77
2018-04-16T17:49:06.246Z,31.40
2018-04-16T17:53:49.592Z,41.27
2018-04-16T17:58:33.033Z,33.30
2018-04-16T18:03:16.650Z,46.50
2018-04-16T18:08:00.104Z,48.40
2018-04-16T18:12:43.697Z,31.60
2018-04-16T18:17:27.177Z,32.23
2018-04-16T18:22:10.798Z,29.10
2018-04-16T18:26:55.137Z,32.20
2018-04-16T18:31:38.657Z,31.13
2018-04-16T18:36:23.126Z,33.73
2018-04-16T18:41:06.992Z,33.87
2018-04-16T18:45:50.413Z,38.07
2018-04-16T18:50:33.822Z,35.33
2018-04-16T18:55:21.381Z,38.77
2018-04-16T19:00:11.215Z,36.53
2018-04-16T19:04:54.821Z,36.43
2018-04-16T19:09:41.194Z,38.10
2018-04-16T19:14:25.066Z,39.03
2018-04-16T19:19:11.734Z,39.90
2018-04-16T19:24:02.727Z,38.60
2018-04-16T19:33:48.145Z,34.13
2018-04-16T19:39:07.502Z,34.93
2018-04-16T19:50:02.467Z,30.97
2018-04-16T19:54:50.721Z,29.97
2018-04-16T19:59:36.700Z,28.00
2018-04-16T20:04:20.146Z,27.73
2018-04-16T20:09:03.635Z,26.00
2018-04-16T20:13:47.100Z,26.10
2018-04-16T20:18:30.843Z,22.53
2018-04-16T20:23:14.327Z,23.30
2018-04-16T20:27:57.698Z,21.90
2018-04-16T20:32:41.242Z,20.67
2018-04-16T20:37:25.365Z,19.77
2018-04-16T20:42:09.301Z,19.13
2018-04-16T20:46:52.641Z,19.57
2018-04-16T20:51:35.988Z,19.27
2018-04-16T20:56:19.334Z,18.00
2018-04-16T21:01:02.668Z,16.57
2018-04-16T21:05:46.022Z,18.60
2018-04-16T21:10:29.983Z,18.37
2018-04-16T21:15:14.137Z,19.63
2018-04-16T21:19:57.465Z,18.63
2018-04-16T21:24:40.812Z,19.77
2018-04-16T21:29:24.241Z,17.93
2018-04-16T21:34:07.609Z,20.57
2018-04-16T21:38:50.922Z,19.70
2018-04-16T21:43:34.260Z,20.87
2018-04-16T21:48:17.614Z,22.63
2018-04-16T21:53:00.965Z,22.37
2018-04-16T21:57:44.278Z,22.17
2018-04-16T22:02:27.645Z,24.47
2018-04-16T22:07:10.974Z,24.20
2018-04-16T22:11:54.336Z,24.27
2018-04-16T22:16:37.772Z,23.73
2018-04-16T22:21:21.060Z,21.80
2018-04-16T22:26:04.381Z,22.80
2018-04-16T22:30:47.744Z,22.07
2018-04-16T22:35:31.083Z,20.37
2018-04-16T22:40:14.483Z,20.37
2018-04-16T22:44:57.807Z,20.97
2018-04-16T22:49:41.187Z,20.17
2018-04-16T22:54:24.514Z,20.03
2018-04-16T22:59:08.607Z,19.43
2018-04-16T23:03:51.904Z,18.80
2018-04-16T23:08:36.153Z,17.43
2018-04-16T23:13:19.489Z,17.03
2018-04-16T23:18:02.814Z,16.20
2018-04-16T23:22:46.167Z,15.80
2018-04-16T23:27:29.513Z,15.37
2018-04-16T23:32:12.837Z,14.80
2018-04-16T23:36:56.175Z,15.00
2018-04-16T23:41:39.488Z,16.60
2018-04-16T23:46:22.809Z,20.23
2018-04-16T23:51:06.194Z,20.80
2018-04-16T23:55:49.646Z,23.33
